Time;durP1;ratioP1;P1;durP2;ratioP2;P2;SDS_P1;SDS_P2;PMS_P1;PMS_P2;Temp;Humidity;BMP_temperature;BMP_pressure;BME280_temperature;BME280_humidity;BME280_pressure;Samples;Min_cycle;Max_cycle;Signal;HPM_P1;HPM_P2
2023/05/19 00:02:17;;;;;;;707.47;661.07;;;12.90;25.40;;;;;;4995408;28;20262;-70
2023/05/19 00:04:43;;;;;;;671.20;628.60;;;12.90;25.70;;;;;;4995582;28;20408;-69
2023/05/19 00:07:14;;;;;;;734.03;684.63;;;12.80;25.50;;;;;;4995614;28;20468;-70
2023/05/19 00:09:40;;;;;;;610.53;571.57;;;12.70;25.50;;;;;;4995675;28;21045;-70
2023/05/19 00:12:06;;;;;;;694.27;648.67;;;12.70;25.50;;;;;;4995531;28;20413;-70
2023/05/19 00:14:32;;;;;;;647.73;604.87;;;12.70;25.60;;;;;;4995699;28;20208;-70
2023/05/19 00:17:00;;;;;;;695.23;651.73;;;12.70;25.30;;;;;;4995558;28;20515;-69
2023/05/19 00:19:30;;;;;;;744.10;693.23;;;12.70;25.50;;;;;;4995609;28;20320;-70
2023/05/19 00:21:57;;;;;;;739.07;686.83;;;12.60;25.70;;;;;;4995029;28;20417;-69
2023/05/19 00:24:22;;;;;;;769.50;717.43;;;12.60;25.80;;;;;;4995229;28;20422;-70
2023/05/19 00:26:48;;;;;;;592.20;554.63;;;12.60;25.40;;;;;;4995044;28;20459;-70
2023/05/19 00:29:17;;;;;;;656.10;611.80;;;12.60;25.00;;;;;;4994976;28;20206;-70
2023/05/19 00:31:42;;;;;;;735.03;686.97;;;12.50;25.40;;;;;;4994815;28;20177;-70
2023/05/19 00:34:08;;;;;;;735.07;685.83;;;12.60;25.30;;;;;;4995112;28;20917;-70
2023/05/19 00:36:33;;;;;;;541.00;510.00;;;12.60;25.20;;;;;;4994917;28;20170;-70
2023/05/19 00:38:59;;;;;;;677.27;634.47;;;12.60;25.10;;;;;;4994899;28;20697;-70
2023/05/19 00:41:25;;;;;;;805.70;748.33;;;12.50;25.70;;;;;;4994709;28;20181;-70
2023/05/19 00:43:51;;;;;;;684.33;640.67;;;12.50;25.60;;;;;;4994683;28;20621;-69
2023/05/19 00:46:17;;;;;;;540.63;508.43;;;12.60;25.90;;;;;;4993437;28;20505;-70
2023/05/19 00:48:44;;;;;;;665.93;621.77;;;12.50;25.80;;;;;;4993356;28;20213;-70
2023/05/19 00:51:13;;;;;;;644.00;603.40;;;12.50;26.10;;;;;;4994592;28;20416;-69
2023/05/19 00:53:39;;;;;;;644.40;603.70;;;12.50;25.70;;;;;;4993383;28;20818;-70
2023/05/19 00:56:05;;;;;;;730.53;681.57;;;12.50;26.00;;;;;;4994472;28;20423;-70
2023/05/19 00:58:32;;;;;;;593.97;554.33;;;12.50;26.30;;;;;;4994419;28;20451;-69
2023/05/19 01:01:01;;;;;;;578.37;542.67;;;12.50;26.40;;;;;;4994429;28;20181;-70
2023/05/19 01:03:30;;;;;;;678.50;634.83;;;12.40;26.20;;;;;;4994226;28;20456;-69
2023/05/19 01:06:00;;;;;;;644.27;604.00;;;12.40;26.80;;;;;;4994360;28;20503;-70
2023/05/19 01:08:26;;;;;;;601.47;563.93;;;12.30;26.60;;;;;;4994274;28;21007;-69
2023/05/19 01:10:52;;;;;;;803.17;748.97;;;12.40;26.20;;;;;;4994331;28;20416;-70
2023/05/19 01:13:17;;;;;;;796.07;742.40;;;12.30;26.70;;;;;;4994110;28;20426;-69
2023/05/19 01:16:21;;;;;;;581.03;546.27;;;12.30;26.80;;;;;;4994224;28;20181;-70
2023/05/19 01:19:05;;;;;;;686.27;640.80;;;12.30;26.70;;;;;;4994092;28;20285;-69
2023/05/19 01:21:59;;;;;;;664.57;621.80;;;12.20;26.60;;;;;;4993915;28;20496;-70
2023/05/19 01:25:02;;;;;;;615.03;574.77;;;12.20;26.20;;;;;;4983819;28;20482;-69
2023/05/19 01:27:59;;;;;;;754.40;701.67;;;12.20;26.30;;;;;;4993971;28;20802;-69
2023/05/19 01:30:47;;;;;;;766.87;717.07;;;12.20;26.40;;;;;;4993921;28;20404;-70
2023/05/19 01:33:13;;;;;;;691.63;644.80;;;12.30;26.80;;;;;;4993897;28;20412;-69
2023/05/19 01:35:41;;;;;;;636.57;596.20;;;12.30;26.70;;;;;;4992672;28;20435;-70
2023/05/19 01:38:09;;;;;;;770.47;716.30;;;12.20;26.50;;;;;;4993829;28;20436;-70
2023/05/19 01:40:36;;;;;;;533.23;501.93;;;12.20;26.70;;;;;;4993725;28;20415;-70
2023/05/19 01:43:03;;;;;;;552.87;521.90;;;12.20;26.90;;;;;;4993782;28;20834;-69
2023/05/19 01:45:30;;;;;;;483.83;455.20;;;12.10;26.50;;;;;;4993662;28;20421;-69
2023/05/19 01:47:58;;;;;;;636.90;596.47;;;12.10;26.90;;;;;;4993448;28;20463;-69
2023/05/19 01:50:24;;;;;;;659.20;611.03;;;12.20;26.20;;;;;;4993580;28;20435;-69
2023/05/19 01:52:50;;;;;;;659.77;616.47;;;12.10;26.80;;;;;;4993344;28;20413;-70
2023/05/19 01:55:16;;;;;;;566.93;531.50;;;12.00;27.10;;;;;;4993570;28;20204;-69
2023/05/19 01:57:50;;;;;;;554.47;520.83;;;12.00;27.20;;;;;;4993335;28;20539;-70
2023/05/19 02:00:47;;;;;;;608.03;570.57;;;12.00;27.00;;;;;;4992306;28;20453;-70
2023/05/19 02:03:25;;;;;;;652.27;611.10;;;12.00;27.40;;;;;;4991625;28;20432;-69
2023/05/19 02:05:59;;;;;;;551.53;518.13;;;12.00;27.70;;;;;;4993352;28;20783;-69
2023/05/19 02:08:57;;;;;;;583.53;546.87;;;12.00;27.60;;;;;;4993270;28;21037;-70
2023/05/19 02:11:38;;;;;;;667.83;623.40;;;12.00;27.50;;;;;;4993150;28;20782;-69
2023/05/19 02:14:08;;;;;;;673.97;630.07;;;;;;;;;;4991938;28;20419;-70
2023/05/19 02:16:36;;;;;;;736.13;688.20;;;;;;;;;;4992128;28;21007;-70
2023/05/19 02:19:02;;;;;;;632.13;591.00;;;;;;;;;;4993014;28;20462;-69
2023/05/19 02:21:28;;;;;;;637.10;597.37;;;;;;;;;;4992850;28;20451;-69
2023/05/19 02:23:54;;;;;;;831.47;774.47;;;;;;;;;;4991696;28;20405;-70
2023/05/19 02:26:20;;;;;;;803.17;746.93;;;;;;;;;;4991647;28;20510;-70
2023/05/19 02:28:46;;;;;;;564.60;530.90;;;;;;;;;;4992775;28;20456;-69
2023/05/19 02:31:12;;;;;;;578.33;543.50;;;;;;;;;;4992897;28;20412;-69
2023/05/19 02:33:37;;;;;;;622.83;581.70;;;12.00;28.10;;;;;;4992676;28;20443;-69
2023/05/19 02:36:04;;;;;;;664.63;622.53;;;11.80;29.30;;;;;;4992884;28;20496;-70
2023/05/19 02:38:29;;;;;;;715.63;671.20;;;11.80;29.00;;;;;;4992599;28;20209;-69
2023/05/19 02:40:55;;;;;;;592.57;558.20;;;11.80;29.60;;;;;;4991412;28;20434;-70
2023/05/19 02:43:21;;;;;;;495.30;465.97;;;11.80;29.60;;;;;;4991192;28;20236;-70
2023/05/19 02:45:46;;;;;;;631.93;591.07;;;11.70;29.90;;;;;;4992805;28;20901;-70
2023/05/19 02:48:12;;;;;;;601.33;562.53;;;11.80;30.30;;;;;;4992547;28;20218;-71
2023/05/19 02:50:38;;;;;;;525.83;494.27;;;11.70;32.30;;;;;;4992657;28;20186;-71
2023/05/19 02:53:03;;;;;;;636.00;592.70;;;11.70;34.40;;;;;;4992361;28;20699;-71
2023/05/19 02:55:29;;;;;;;591.83;553.97;;;11.70;36.90;;;;;;4992610;28;20503;-71
2023/05/19 02:57:54;;;;;;;598.43;562.53;;;11.60;37.60;;;;;;4992359;28;20216;-70
2023/05/19 03:00:20;;;;;;;738.27;689.70;;;11.60;38.90;;;;;;4992689;28;20181;-71
2023/05/19 03:02:46;;;;;;;789.17;734.40;;;11.60;39.80;;;;;;4991892;28;20208;-71
2023/05/19 03:05:13;;;;;;;652.47;612.83;;;;;;;;;;4991421;28;20180;-70
2023/05/19 03:07:43;;;;;;;624.73;583.43;;;;;;;;;;4991071;28;20622;-70
2023/05/19 03:10:11;;;;;;;566.47;530.70;;;;;;;;;;4992462;28;20498;-71
2023/05/19 03:12:37;;;;;;;616.13;578.67;;;;;;;;;;4992153;28;20409;-70
2023/05/19 03:15:03;;;;;;;760.97;710.20;;;;;;;;;;4992615;28;20450;-71
2023/05/19 03:17:32;;;;;;;594.70;560.03;;;;;;;;;;4995161;28;20451;-70
2023/05/19 03:19:59;;;;;;;572.43;537.53;;;;;;;;;;4996913;28;20419;-70
2023/05/19 03:22:25;;;;;;;543.00;510.63;;;;;;;;;;4994750;28;20819;-70
2023/05/19 03:24:53;;;;;;;579.57;546.40;;;;;;;;;;4996378;28;20487;-71
2023/05/19 03:27:19;;;;;;;629.57;590.33;;;;;;;;;;4996206;28;20448;-70
2023/05/19 03:29:44;;;;;;;593.80;558.97;;;11.60;43.60;;;;;;4996080;28;20501;-71
2023/05/19 03:32:10;;;;;;;566.67;532.80;;;11.70;37.00;;;;;;4996000;28;20453;-71
2023/05/19 03:34:35;;;;;;;580.43;543.63;;;11.60;37.00;;;;;;4996136;28;20223;-70
2023/05/19 03:37:01;;;;;;;522.37;492.93;;;11.60;36.80;;;;;;4996507;28;20188;-71
2023/05/19 03:39:26;;;;;;;551.17;517.07;;;11.50;37.50;;;;;;4994735;28;20197;-70
2023/05/19 03:41:51;;;;;;;662.80;622.63;;;11.50;37.50;;;;;;4995741;28;20186;-70
2023/05/19 03:44:17;;;;;;;560.63;529.13;;;11.50;38.30;;;;;;4994953;28;20659;-70
2023/05/19 03:46:43;;;;;;;677.93;634.67;;;11.60;38.20;;;;;;4994688;28;20195;-70
2023/05/19 03:49:08;;;;;;;608.07;571.17;;;11.60;37.80;;;;;;4994529;28;20300;-71
2023/05/19 03:51:35;;;;;;;663.57;621.67;;;11.50;38.50;;;;;;4995579;28;20181;-71
2023/05/19 03:54:00;;;;;;;680.47;636.90;;;11.50;38.80;;;;;;4994453;28;20181;-71
2023/05/19 03:56:28;;;;;;;548.03;515.97;;;11.50;38.50;;;;;;4994531;28;20423;-71
2023/05/19 03:58:54;;;;;;;561.63;530.17;;;11.50;37.50;;;;;;4995687;28;20340;-71
2023/05/19 04:01:19;;;;;;;629.90;591.90;;;11.40;37.40;;;;;;4995885;28;20423;-71
2023/05/19 04:03:45;;;;;;;635.53;595.90;;;11.50;36.90;;;;;;4994266;28;20596;-70
2023/05/19 04:06:11;;;;;;;543.87;513.50;;;11.50;36.70;;;;;;4995702;28;20682;-69
2023/05/19 04:08:38;;;;;;;504.80;476.43;;;11.50;36.40;;;;;;4994181;28;20215;-69
2023/05/19 04:11:03;;;;;;;520.73;491.30;;;11.50;36.70;;;;;;4995425;28;20417;-69
2023/05/19 04:13:31;;;;;;;550.87;519.07;;;11.60;36.50;;;;;;4995133;28;20412;-69
2023/05/19 04:15:57;;;;;;;602.90;567.57;;;11.60;36.50;;;;;;4995507;28;20674;-69
2023/05/19 04:18:23;;;;;;;639.70;598.17;;;11.60;29.70;;;;;;4995833;28;20432;-69
2023/05/19 04:20:48;;;;;;;596.83;562.83;;;11.70;28.70;;;;;;4995353;28;20178;-69
2023/05/19 04:23:14;;;;;;;543.87;510.37;;;11.70;28.10;;;;;;4995103;28;20203;-69
2023/05/19 04:25:40;;;;;;;646.73;607.93;;;11.70;28.10;;;;;;4995195;28;20646;-69
2023/05/19 04:28:06;;;;;;;565.10;531.13;;;11.70;28.20;;;;;;4993584;28;20463;-69
2023/05/19 04:30:33;;;;;;;583.10;548.33;;;11.80;27.90;;;;;;4993604;28;20798;-69
2023/05/19 04:32:59;;;;;;;553.17;520.73;;;11.90;27.70;;;;;;4994884;28;20593;-69
2023/05/19 04:35:26;;;;;;;590.03;552.07;;;12.00;27.80;;;;;;4995163;28;20417;-70
2023/05/19 04:37:53;;;;;;;561.27;527.80;;;12.00;27.30;;;;;;4994939;28;20451;-70
2023/05/19 04:40:19;;;;;;;619.20;584.90;;;12.10;27.40;;;;;;4994955;28;20433;-69
2023/05/19 04:42:45;;;;;;;662.17;618.23;;;12.20;27.20;;;;;;4993375;28;20421;-70
2023/05/19 04:45:12;;;;;;;619.77;581.03;;;12.40;26.90;;;;;;4993648;28;20423;-69
2023/05/19 04:47:39;;;;;;;610.87;577.13;;;12.50;26.40;;;;;;4994814;28;20223;-70
2023/05/19 04:50:06;;;;;;;567.83;533.57;;;12.60;26.00;;;;;;4994601;28;20409;-69
2023/05/19 04:52:32;;;;;;;545.20;512.77;;;12.80;25.50;;;;;;4994551;28;20408;-69
2023/05/19 04:54:57;;;;;;;674.67;631.03;;;13.00;24.40;;;;;;4994545;28;20411;-69
2023/05/19 04:57:23;;;;;;;730.87;681.23;;;13.10;21.50;;;;;;4993320;28;20426;-69
2023/05/19 04:59:49;;;;;;;589.37;550.93;;;13.30;17.30;;;;;;4995269;28;20184;-69
2023/05/19 05:02:14;;;;;;;598.87;560.30;;;13.50;14.90;;;;;;4994383;28;20177;-69
2023/05/19 05:04:42;;;;;;;673.97;624.67;;;13.50;14.80;;;;;;4994385;28;20174;-69
2023/05/19 05:07:09;;;;;;;690.73;646.57;;;13.50;14.20;;;;;;4994274;28;20333;-69
2023/05/19 05:09:34;;;;;;;809.43;752.23;;;13.50;14.20;;;;;;4994135;28;20445;-69
2023/05/19 05:12:01;;;;;;;764.90;711.40;;;13.50;13.30;;;;;;4995228;28;20422;-69
2023/05/19 05:14:27;;;;;;;611.23;572.47;;;13.40;13.40;;;;;;4994289;28;20557;-69
2023/05/19 05:16:53;;;;;;;667.00;622.60;;;13.40;12.70;;;;;;4994201;28;20419;-69
2023/05/19 05:19:20;;;;;;;697.10;649.97;;;13.20;12.90;;;;;;4994068;28;20442;-69
2023/05/19 05:21:46;;;;;;;808.33;752.13;;;13.30;12.90;;;;;;4992676;28;20219;-69
2023/05/19 05:24:12;;;;;;;740.93;690.27;;;13.40;12.70;;;;;;4994154;28;20415;-69
2023/05/19 05:26:38;;;;;;;588.77;550.87;;;13.30;12.90;;;;;;4994055;28;20208;-70
2023/05/19 05:29:04;;;;;;;706.60;658.83;;;13.30;12.20;;;;;;4992668;28;20494;-69
2023/05/19 05:31:30;;;;;;;660.10;614.87;;;13.60;11.90;;;;;;4992528;28;20176;-69
2023/05/19 05:33:55;;;;;;;805.43;750.10;;;13.90;7.90;;;;;;4993617;28;20190;-69
2023/05/19 05:36:21;;;;;;;862.37;801.47;;;14.30;2.50;;;;;;4993827;28;20502;-69
2023/05/19 05:38:46;;;;;;;705.00;657.00;;;14.80;1.20;;;;;;4993216;28;20204;-69
2023/05/19 05:41:12;;;;;;;649.90;607.53;;;14.90;1.00;;;;;;4993791;28;20181;-69
2023/05/19 05:43:37;;;;;;;706.27;656.63;;;15.10;1.00;;;;;;4992268;28;20267;-70
2023/05/19 05:46:03;;;;;;;571.93;534.30;;;15.60;1.00;;;;;;4993732;28;20195;-69
2023/05/19 05:48:29;;;;;;;688.67;638.10;;;15.80;1.00;;;;;;4993327;28;20209;-70
2023/05/19 05:50:55;;;;;;;776.20;718.67;;;16.60;13.60;;;;;;4995301;28;20184;-70
2023/05/19 05:53:24;;;;;;;719.60;664.53;;;17.10;24.90;;;;;;4992111;28;20195;-69
2023/05/19 05:55:50;;;;;;;889.47;819.67;;;17.30;24.30;;;;;;4993227;28;20822;-69
2023/05/19 05:58:16;;;;;;;850.13;784.53;;;17.90;24.00;;;;;;5021755;22;20848;-69
2023/05/19 06:00:42;;;;;;;600.40;553.70;;;18.50;22.20;;;;;;5012678;28;20223;-70
2023/05/19 06:03:09;;;;;;;510.93;477.50;;;18.20;22.30;;;;;;5012325;28;20403;-70
2023/05/19 06:05:35;;;;;;;709.17;653.20;;;18.20;22.10;;;;;;5013047;28;20462;-71
2023/05/19 06:08:00;;;;;;;538.73;502.27;;;18.20;22.00;;;;;;5012277;28;20844;-71
2023/05/19 06:10:27;;;;;;;726.20;669.40;;;18.20;22.20;;;;;;5010880;28;20700;-71
2023/05/19 06:12:53;;;;;;;874.53;801.57;;;18.30;21.90;;;;;;5010766;28;20203;-71
2023/05/19 06:15:20;;;;;;;582.83;539.93;;;18.70;21.30;;;;;;5011025;28;20415;-71
2023/05/19 06:17:46;;;;;;;729.73;673.97;;;18.90;21.90;;;;;;5012085;28;20192;-71
2023/05/19 06:20:12;;;;;;;816.97;751.43;;;19.00;21.50;;;;;;5010840;28;20476;-71
2023/05/19 06:22:37;;;;;;;736.47;682.37;;;19.30;21.20;;;;;;5010892;28;20187;-71
2023/05/19 06:25:04;;;;;;;631.67;584.93;;;20.60;9.50;;;;;;5012222;28;20410;-71
2023/05/19 06:27:30;;;;;;;595.07;552.73;;;21.90;13.40;;;;;;5012263;28;20668;-71
2023/05/19 06:29:55;;;;;;;657.17;606.90;;;22.90;6.80;;;;;;5011980;28;20435;-72
2023/05/19 06:32:21;;;;;;;763.80;701.03;;;23.50;4.90;;;;;;5011971;28;20180;-71
2023/05/19 06:34:52;;;;;;;638.90;592.00;;;24.40;1.30;;;;;;5012220;28;20193;-72
2023/05/19 06:37:21;;;;;;;655.07;607.80;;;24.00;1.00;;;;;;5011094;28;20279;-71
2023/05/19 06:39:48;;;;;;;815.97;748.50;;;24.50;1.30;;;;;;5011862;28;20434;-73
2023/05/19 06:42:20;;;;;;;688.50;638.33;;;24.70;6.20;;;;;;5011594;28;20943;-70
2023/05/19 06:44:50;;;;;;;742.00;681.93;;;25.00;6.50;;;;;;5011920;28;20597;-71
2023/05/19 06:47:16;;;;;;;551.53;517.23;;;23.60;6.40;;;;;;5011544;28;20470;-70
2023/05/19 06:49:45;;;;;;;720.33;661.47;;;22.40;8.00;;;;;;5012006;28;20820;-70
2023/05/19 06:52:11;;;;;;;669.87;619.97;;;21.20;13.20;;;;;;5012062;28;20411;-72
2023/05/19 06:54:37;;;;;;;725.70;667.93;;;20.10;13.00;;;;;;5012827;28;20414;-71
2023/05/19 06:57:03;;;;;;;666.63;617.67;;;;;;;;;;5012056;28;20183;-70
2023/05/19 06:59:29;;;;;;;674.23;625.20;;;;;;;;;;5011487;28;20223;-71
2023/05/19 07:01:55;;;;;;;720.57;663.90;;;;;;;;;;4999762;28;20455;-70
2023/05/19 07:04:21;;;;;;;707.77;651.53;;;;;;;;;;5005007;28;20892;-72
2023/05/19 07:06:49;;;;;;;737.07;680.13;;;;;;;;;;5011105;28;20910;-69
2023/05/19 07:09:15;;;;;;;675.90;622.67;;;;;;;;;;4996492;28;20529;-69
2023/05/19 07:11:41;;;;;;;522.50;487.50;;;20.00;14.50;;;;;;4991837;28;20458;-70
2023/05/19 07:14:06;;;;;;;804.03;739.97;;;17.70;19.30;;;;;;4994929;28;20430;-69
2023/05/19 07:16:32;;;;;;;751.03;691.17;;;17.50;19.60;;;;;;5011663;28;20176;-70
2023/05/19 07:18:58;;;;;;;647.30;601.23;;;17.40;19.40;;;;;;5011656;28;20211;-70
2023/05/19 07:21:23;;;;;;;580.07;541.53;;;17.20;20.30;;;;;;4998174;28;20188;-69
2023/05/19 07:23:49;;;;;;;627.83;583.37;;;16.80;20.70;;;;;;4992962;28;20188;-72
2023/05/19 07:26:17;;;;;;;654.50;610.00;;;16.60;21.30;;;;;;4993069;28;20222;-70
2023/05/19 07:28:43;;;;;;;834.90;770.67;;;16.70;21.50;;;;;;4992626;28;20212;-72
2023/05/19 07:31:09;;;;;;;619.27;575.17;;;17.00;21.30;;;;;;4997481;28;20942;-70
2023/05/19 07:33:34;;;;;;;629.77;587.17;;;17.40;21.20;;;;;;5001617;28;20199;-70
2023/05/19 07:36:00;;;;;;;622.87;581.57;;;18.30;20.20;;;;;;4991775;28;20181;-71
2023/05/19 07:38:27;;;;;;;714.23;660.70;;;19.10;18.60;;;;;;4990746;28;20204;-71
2023/05/19 07:40:53;;;;;;;618.67;576.23;;;19.00;18.00;;;;;;4994990;28;20179;-71
2023/05/19 07:43:27;;;;;;;838.53;772.63;;;18.70;18.60;;;;;;5011593;28;20455;-72
2023/05/19 07:45:54;;;;;;;610.03;566.43;;;18.20;19.30;;;;;;4994694;28;20646;-71
2023/05/19 07:48:21;;;;;;;573.67;533.97;;;17.80;19.40;;;;;;5011259;28;20570;-72
2023/05/19 07:50:48;;;;;;;542.83;505.83;;;17.70;20.00;;;;;;5011143;28;20553;-70
2023/05/19 07:53:14;;;;;;;644.83;600.07;;;;;;;;;;5010118;28;20419;-72
2023/05/19 07:55:40;;;;;;;527.83;494.53;;;;;;;;;;5011655;28;20429;-71
2023/05/19 07:58:06;;;;;;;603.33;561.57;;;17.50;20.70;;;;;;5011279;28;20442;-69
2023/05/19 08:00:31;;;;;;;626.53;578.63;;;17.10;20.30;;;;;;5011929;28;20504;-70
2023/05/19 08:02:57;;;;;;;687.90;638.60;;;16.60;21.80;;;;;;5014411;28;20202;-70
2023/05/19 08:05:24;;;;;;;776.63;706.77;;;16.50;22.20;;;;;;5014248;28;20274;-72
2023/05/19 08:07:50;;;;;;;720.50;669.03;;;16.30;22.70;;;;;;5017698;28;20203;-72
2023/05/19 08:10:16;;;;;;;682.33;634.33;;;16.20;23.20;;;;;;5016303;28;20410;-71
2023/05/19 08:12:42;;;;;;;668.37;621.43;;;16.30;23.30;;;;;;5015151;28;20180;-71
2023/05/19 08:15:10;;;;;;;700.93;649.57;;;16.30;23.40;;;;;;5015278;28;20476;-71
2023/05/19 08:17:36;;;;;;;687.67;639.33;;;16.30;24.20;;;;;;5015063;28;20429;-71
2023/05/19 08:20:04;;;;;;;707.50;655.13;;;16.60;23.20;;;;;;5014826;28;20498;-71
2023/05/19 08:22:29;;;;;;;490.60;460.40;;;16.40;23.50;;;;;;5014354;28;20461;-72
2023/05/19 08:24:55;;;;;;;708.10;656.40;;;15.90;24.00;;;;;;5013692;28;20932;-70
2023/05/19 08:27:21;;;;;;;671.47;625.53;;;15.80;24.90;;;;;;5015152;28;20215;-71
2023/05/19 08:29:47;;;;;;;560.37;523.60;;;15.60;25.00;;;;;;5014276;28;20461;-71
2023/05/19 08:32:13;;;;;;;631.07;588.17;;;15.30;25.40;;;;;;5014288;28;20189;-71
2023/05/19 08:34:38;;;;;;;735.33;681.93;;;15.20;25.80;;;;;;5016195;28;20411;-70
2023/05/19 08:37:04;;;;;;;680.07;628.30;;;15.00;26.00;;;;;;5014651;28;20587;-71
2023/05/19 08:39:32;;;;;;;767.33;710.97;;;15.00;26.00;;;;;;5014580;28;20196;-71
2023/05/19 08:41:57;;;;;;;668.20;622.13;;;15.00;26.60;;;;;;5014515;28;20322;-70
2023/05/19 08:44:23;;;;;;;628.20;584.80;;;15.20;26.60;;;;;;5014312;28;20860;-71
2023/05/19 08:46:51;;;;;;;533.70;499.30;;;15.20;26.30;;;;;;5014563;28;20187;-70
2023/05/19 08:49:25;;;;;;;705.63;657.00;;;15.10;26.70;;;;;;5014587;28;20196;-71
2023/05/19 08:52:08;;;;;;;582.13;544.50;;;15.30;26.60;;;;;;5013880;28;20419;-70
2023/05/19 08:54:44;;;;;;;506.30;475.13;;;15.50;26.50;;;;;;5014083;28;20399;-71
2023/05/19 08:57:10;;;;;;;629.33;583.67;;;15.70;26.00;;;;;;5013837;28;20489;-71
2023/05/19 08:59:38;;;;;;;720.57;668.30;;;15.40;26.30;;;;;;5013800;28;20542;-71
2023/05/19 09:02:04;;;;;;;724.53;672.73;;;15.50;26.40;;;;;;5012003;28;20432;-71
2023/05/19 09:04:30;;;;;;;662.60;614.67;;;15.50;26.40;;;;;;5012624;28;20411;-71
2023/05/19 09:06:57;;;;;;;682.23;630.83;;;15.50;26.00;;;;;;5013946;28;20826;-71
2023/05/19 09:09:23;;;;;;;816.63;755.77;;;15.20;26.20;;;;;;5013651;28;20478;-72
2023/05/19 09:11:48;;;;;;;643.30;596.77;;;15.30;26.80;;;;;;5013077;28;20459;-72
2023/05/19 09:14:14;;;;;;;587.07;547.80;;;15.40;26.30;;;;;;5012557;28;20176;-71
2023/05/19 09:16:41;;;;;;;615.77;573.43;;;15.60;26.40;;;;;;5013581;28;20169;-71
2023/05/19 09:19:14;;;;;;;570.13;532.10;;;15.80;26.40;;;;;;5013467;28;20262;-71
2023/05/19 09:21:40;;;;;;;542.37;506.03;;;16.00;25.60;;;;;;5013127;28;20485;-71
2023/05/19 09:24:07;;;;;;;593.50;549.83;;;15.70;26.10;;;;;;5013681;28;20411;-70
2023/05/19 09:26:41;;;;;;;702.63;651.60;;;15.30;26.20;;;;;;5012574;28;20423;-72
2023/05/19 09:29:14;;;;;;;694.17;643.90;;;15.00;26.90;;;;;;5013293;28;20503;-71
2023/05/19 09:31:50;;;;;;;798.50;740.43;;;15.20;26.70;;;;;;5012871;28;20434;-71
2023/05/19 09:34:16;;;;;;;817.63;756.83;;;15.40;26.30;;;;;;5013243;28;20411;-70
2023/05/19 09:36:42;;;;;;;584.57;545.70;;;15.40;26.30;;;;;;5013310;28;21010;-70
2023/05/19 09:39:18;;;;;;;667.83;622.37;;;15.00;27.10;;;;;;5013222;28;20783;-71
2023/05/19 09:41:44;;;;;;;777.20;722.30;;;14.90;27.20;;;;;;5012633;28;20210;-69
2023/05/19 09:44:28;;;;;;;685.27;634.37;;;14.90;27.40;;;;;;5013275;28;20918;-70
2023/05/19 09:46:54;;;;;;;695.60;648.97;;;14.90;27.70;;;;;;5013086;28;20274;-70
2023/05/19 09:49:27;;;;;;;669.93;622.63;;;14.70;27.80;;;;;;5012932;28;20888;-72
2023/05/19 09:51:53;;;;;;;710.67;661.43;;;14.50;27.90;;;;;;5012766;28;20874;-69
2023/05/19 09:54:23;;;;;;;600.50;561.80;;;14.60;28.20;;;;;;5012695;28;20506;-71
2023/05/19 09:57:03;;;;;;;756.03;703.17;;;14.60;27.70;;;;;;5012815;28;20187;-71
2023/05/19 09:59:29;;;;;;;664.23;618.60;;;14.80;27.50;;;;;;5011124;28;20451;-70
2023/05/19 10:01:57;;;;;;;640.60;595.00;;;14.70;27.70;;;;;;5012413;28;20453;-70
2023/05/19 10:04:25;;;;;;;611.43;570.87;;;14.80;27.60;;;;;;5012518;28;20410;-69
2023/05/19 10:06:52;;;;;;;597.03;555.70;;;;;;;;;;5011395;28;20415;-72
2023/05/19 10:09:23;;;;;;;595.27;554.13;;;;;;;;;;5012382;28;20446;-70
2023/05/19 10:11:51;;;;;;;522.80;490.90;;;;;;;;;;5004825;28;21041;-70
2023/05/19 10:14:18;;;;;;;550.50;516.00;;;14.90;27.60;;;;;;4992723;28;20404;-70
2023/05/19 10:16:44;;;;;;;711.43;654.90;;;14.80;27.90;;;;;;4992791;28;20404;-70
2023/05/19 10:19:11;;;;;;;610.77;570.03;;;14.70;27.10;;;;;;4993251;28;20495;-70
2023/05/19 10:21:37;;;;;;;667.43;618.43;;;14.60;27.90;;;;;;5002568;28;20475;-70
2023/05/19 10:24:02;;;;;;;548.00;514.93;;;14.50;27.90;;;;;;4998247;28;20411;-70
2023/05/19 10:26:29;;;;;;;849.43;785.93;;;14.20;28.60;;;;;;4993018;28;20192;-68
2023/05/19 10:28:56;;;;;;;778.87;722.30;;;14.30;28.70;;;;;;5012058;28;20542;-69
2023/05/19 10:31:23;;;;;;;683.53;635.90;;;14.50;28.90;;;;;;4994879;28;20443;-69
2023/05/19 10:34:00;;;;;;;700.97;651.50;;;14.80;27.90;;;;;;5012509;28;20767;-70
2023/05/19 10:36:38;;;;;;;634.00;592.97;;;15.10;27.00;;;;;;5013008;28;20426;-68
2023/05/19 10:39:11;;;;;;;703.80;653.90;;;15.20;26.70;;;;;;5012047;28;20808;-71
2023/05/19 10:42:09;;;;;;;727.30;673.63;;;15.40;26.50;;;;;;5011193;28;20442;-70
2023/05/19 10:44:57;;;;;;;647.00;605.43;;;15.60;26.40;;;;;;5011832;28;20414;-71
2023/05/19 10:47:26;;;;;;;668.63;623.67;;;15.70;26.50;;;;;;4992043;28;20459;-70
2023/05/19 10:49:53;;;;;;;691.67;643.10;;;15.60;26.40;;;;;;4992200;28;20447;-71
2023/05/19 10:52:24;;;;;;;595.47;556.47;;;15.50;26.40;;;;;;4992310;28;20421;-70
2023/05/19 10:54:53;;;;;;;706.07;657.37;;;15.60;26.40;;;;;;5006037;28;20461;-71
2023/05/19 10:57:30;;;;;;;696.80;646.13;;;15.40;26.90;;;;;;5018786;28;20951;-72
2023/05/19 10:59:56;;;;;;;553.03;519.80;;;15.20;26.50;;;;;;5018616;28;20461;-68
2023/05/19 11:02:40;;;;;;;665.10;613.93;;;15.10;27.50;;;;;;5011712;28;20514;-69
2023/05/19 11:05:15;;;;;;;540.40;506.93;;;14.90;27.00;;;;;;5011682;28;20427;-69
2023/05/19 11:08:03;;;;;;;570.80;535.73;;;15.00;27.20;;;;;;5012180;28;20466;-68
2023/05/19 11:10:29;;;;;;;785.80;727.50;;;15.10;27.10;;;;;;5012443;28;20892;-69
2023/05/19 11:12:56;;;;;;;773.07;716.27;;;15.00;27.00;;;;;;5012027;28;20442;-70
2023/05/19 11:15:26;;;;;;;628.37;583.53;;;14.90;27.30;;;;;;5012093;28;20238;-70
2023/05/19 11:17:52;;;;;;;684.47;636.27;;;14.90;27.00;;;;;;5011954;28;20436;-69
2023/05/19 11:20:26;;;;;;;642.10;598.03;;;15.10;26.90;;;;;;5011953;28;20411;-68
2023/05/19 11:23:07;;;;;;;571.50;535.33;;;15.40;26.30;;;;;;5012187;28;20761;-69
2023/05/19 11:25:47;;;;;;;610.40;566.93;;;15.50;26.40;;;;;;5010200;28;20592;-68
2023/05/19 11:28:18;;;;;;;657.07;611.43;;;15.50;25.90;;;;;;5011522;28;20892;-68
2023/05/19 11:30:50;;;;;;;703.97;654.03;;;15.60;26.30;;;;;;5011598;28;20950;-69
2023/05/19 11:33:19;;;;;;;668.87;618.80;;;15.40;26.30;;;;;;5011424;28;20403;-69
2023/05/19 11:35:46;;;;;;;774.77;717.90;;;15.30;26.20;;;;;;5011570;28;20429;-69
2023/05/19 11:38:13;;;;;;;623.00;580.83;;;15.40;26.30;;;;;;5015118;28;20939;-68
2023/05/19 11:40:40;;;;;;;590.47;550.07;;;15.30;26.20;;;;;;5015296;28;20422;-69
2023/05/19 11:43:06;;;;;;;724.87;674.17;;;15.10;26.10;;;;;;5015196;28;20410;-70
2023/05/19 11:45:32;;;;;;;637.00;595.10;;;14.80;26.90;;;;;;5015033;28;20444;-67
2023/05/19 11:47:58;;;;;;;805.87;745.27;;;14.60;27.30;;;;;;5014952;28;20196;-69
2023/05/19 11:50:27;;;;;;;716.23;664.27;;;14.50;27.70;;;;;;5013967;28;20425;-69
2023/05/19 11:53:00;;;;;;;665.07;620.03;;;14.40;28.50;;;;;;5014881;28;20194;-68
2023/05/19 11:55:25;;;;;;;823.77;762.73;;;14.50;28.10;;;;;;5014687;28;20418;-70
2023/05/19 11:58:01;;;;;;;676.93;625.77;;;14.70;28.50;;;;;;5014338;28;21032;-68
2023/05/19 12:00:29;;;;;;;679.43;631.27;;;15.00;27.20;;;;;;5015392;28;20190;-69
2023/05/19 12:02:55;;;;;;;610.30;570.53;;;15.00;27.40;;;;;;5014813;28;20427;-69
2023/05/19 12:05:23;;;;;;;633.27;592.77;;;15.00;27.50;;;;;;5014988;28;20430;-68
2023/05/19 12:07:50;;;;;;;542.07;507.97;;;15.00;27.50;;;;;;5014112;28;20840;-68
2023/05/19 12:10:18;;;;;;;584.90;546.20;;;15.20;27.10;;;;;;5014353;28;20851;-69
2023/05/19 12:12:44;;;;;;;567.70;533.30;;;15.30;26.50;;;;;;5014258;28;20411;-69
2023/05/19 12:15:10;;;;;;;622.47;580.43;;;15.60;26.40;;;;;;5014642;28;20423;-68
2023/05/19 12:17:36;;;;;;;593.53;552.47;;;15.80;26.60;;;;;;5014451;28;20777;-69
2023/05/19 12:20:03;;;;;;;551.07;515.20;;;16.10;17.20;;;;;;5014336;28;20196;-69
2023/05/19 12:22:29;;;;;;;810.83;752.80;;;16.30;25.40;;;;;;5013293;28;20676;-68
2023/05/19 12:24:55;;;;;;;602.00;555.17;;;16.60;25.10;;;;;;5015565;28;20427;-69